sensor_id;sensor_type;location;lat;lon;timestamp;pressure;altitude;pressure_sealevel;temperature;humidity
59411;BME280;45215;32.610;-115.482;2022-11-20T00:00:09;101832.09;;;18.56;42.21
59411;BME280;45215;32.610;-115.482;2022-11-20T00:02:35;101833.91;;;18.56;42.62
59411;BME280;45215;32.610;-115.482;2022-11-20T00:05:01;101833.78;;;18.57;42.35
59411;BME280;45215;32.610;-115.482;2022-11-20T00:07:26;101840.00;;;18.58;42.68
59411;BME280;45215;32.610;-115.482;2022-11-20T00:09:52;101839.16;;;18.57;43.13
59411;BME280;45215;32.610;-115.482;2022-11-20T00:12:18;101841.88;;;18.57;42.80
59411;BME280;45215;32.610;-115.482;2022-11-20T00:14:44;101847.06;;;18.59;42.90
59411;BME280;45215;32.610;-115.482;2022-11-20T00:17:09;101842.13;;;18.74;42.24
59411;BME280;45215;32.610;-115.482;2022-11-20T00:19:35;101852.59;;;18.77;42.22
59411;BME280;45215;32.610;-115.482;2022-11-20T00:22:01;101851.63;;;18.78;42.50
59411;BME280;45215;32.610;-115.482;2022-11-20T00:24:27;101860.66;;;18.77;42.30
59411;BME280;45215;32.610;-115.482;2022-11-20T00:26:52;101854.03;;;18.81;42.40
59411;BME280;45215;32.610;-115.482;2022-11-20T00:29:18;101857.56;;;18.81;42.93
59411;BME280;45215;32.610;-115.482;2022-11-20T00:31:44;101863.78;;;18.82;43.73
59411;BME280;45215;32.610;-115.482;2022-11-20T00:34:10;101866.34;;;18.83;44.06
59411;BME280;45215;32.610;-115.482;2022-11-20T00:36:38;101864.50;;;18.84;44.64
59411;BME280;45215;32.610;-115.482;2022-11-20T00:39:04;101862.66;;;18.84;45.08
59411;BME280;45215;32.610;-115.482;2022-11-20T00:41:30;101871.56;;;18.85;45.37
59411;BME280;45215;32.610;-115.482;2022-11-20T00:43:56;101879.78;;;18.93;45.63
59411;BME280;45215;32.610;-115.482;2022-11-20T00:46:22;101873.28;;;18.96;47.74
59411;BME280;45215;32.610;-115.482;2022-11-20T00:48:49;101877.81;;;18.95;46.67
59411;BME280;45215;32.610;-115.482;2022-11-20T00:51:16;101895.78;;;18.95;46.52
59411;BME280;45215;32.610;-115.482;2022-11-20T00:53:42;101886.84;;;18.94;46.50
59411;BME280;45215;32.610;-115.482;2022-11-20T00:56:11;101888.69;;;18.93;46.60
59411;BME280;45215;32.610;-115.482;2022-11-20T00:58:38;101885.03;;;18.95;46.52
59411;BME280;45215;32.610;-115.482;2022-11-20T01:03:41;101889.28;;;18.97;45.93
59411;BME280;45215;32.610;-115.482;2022-11-20T01:06:10;101888.72;;;19.03;45.25
59411;BME280;45215;32.610;-115.482;2022-11-20T01:08:36;101894.78;;;19.05;45.30
59411;BME280;45215;32.610;-115.482;2022-11-20T01:11:03;101902.56;;;19.08;46.80
59411;BME280;45215;32.610;-115.482;2022-11-20T01:13:30;101899.88;;;19.08;45.95
59411;BME280;45215;32.610;-115.482;2022-11-20T01:16:03;101891.97;;;19.07;46.20
59411;BME280;45215;32.610;-115.482;2022-11-20T01:18:29;101899.19;;;19.06;46.87
59411;BME280;45215;32.610;-115.482;2022-11-20T01:20:55;101902.84;;;19.05;46.28
59411;BME280;45215;32.610;-115.482;2022-11-20T01:23:21;101905.81;;;19.02;43.24
59411;BME280;45215;32.610;-115.482;2022-11-20T01:25:46;101910.50;;;19.00;46.90
59411;BME280;45215;32.610;-115.482;2022-11-20T01:28:12;101908.50;;;19.02;46.72
59411;BME280;45215;32.610;-115.482;2022-11-20T01:30:38;101908.50;;;19.02;46.01
59411;BME280;45215;32.610;-115.482;2022-11-20T01:33:04;101908.22;;;19.05;46.72
59411;BME280;45215;32.610;-115.482;2022-11-20T01:35:29;101911.91;;;19.04;47.00
59411;BME280;45215;32.610;-115.482;2022-11-20T01:37:55;101906.53;;;19.04;46.45
59411;BME280;45215;32.610;-115.482;2022-11-20T01:40:21;101911.91;;;19.04;46.67
59411;BME280;45215;32.610;-115.482;2022-11-20T01:42:53;101921.00;;;19.03;46.89
59411;BME280;45215;32.610;-115.482;2022-11-20T01:48:18;101919.97;;;19.04;47.53
59411;BME280;45215;32.610;-115.482;2022-11-20T01:50:45;101924.38;;;19.05;49.23
59411;BME280;45215;32.610;-115.482;2022-11-20T01:53:12;101915.31;;;19.06;49.82
59411;BME280;45215;32.610;-115.482;2022-11-20T01:55:50;101920.69;;;19.06;50.07
59411;BME280;45215;32.610;-115.482;2022-11-20T01:58:18;101926.09;;;19.06;49.63
59411;BME280;45215;32.610;-115.482;2022-11-20T02:00:45;101926.94;;;19.07;49.20
59411;BME280;45215;32.610;-115.482;2022-11-20T02:03:12;101935.13;;;19.05;49.04
59411;BME280;45215;32.610;-115.482;2022-11-20T02:05:42;101936.13;;;19.04;48.96
59411;BME280;45215;32.610;-115.482;2022-11-20T02:08:10;101945.88;;;19.05;48.95
59411;BME280;45215;32.610;-115.482;2022-11-20T02:10:36;101948.56;;;19.05;48.09
59411;BME280;45215;32.610;-115.482;2022-11-20T02:13:02;101948.72;;;19.04;48.17
59411;BME280;45215;32.610;-115.482;2022-11-20T02:15:46;101950.41;;;19.05;49.08
59411;BME280;45215;32.610;-115.482;2022-11-20T02:18:13;101949.56;;;19.04;48.79
59411;BME280;45215;32.610;-115.482;2022-11-20T02:20:40;101946.88;;;19.04;48.44
59411;BME280;45215;32.610;-115.482;2022-11-20T02:23:12;101947.03;;;19.03;48.42
59411;BME280;45215;32.610;-115.482;2022-11-20T02:25:41;101946.16;;;19.02;48.43
59411;BME280;45215;32.610;-115.482;2022-11-20T02:28:09;101948.00;;;19.02;47.66
59411;BME280;45215;32.610;-115.482;2022-11-20T02:30:35;101954.09;;;19.04;47.74
59411;BME280;45215;32.610;-115.482;2022-11-20T02:33:00;101960.31;;;19.04;47.76
59411;BME280;45215;32.610;-115.482;2022-11-20T02:37:56;101953.09;;;19.05;47.02
59411;BME280;45215;32.610;-115.482;2022-11-20T02:40:22;101956.63;;;19.05;47.86
59411;BME280;45215;32.610;-115.482;2022-11-20T02:42:51;101963.44;;;19.09;49.36
59411;BME280;45215;32.610;-115.482;2022-11-20T02:45:17;101963.44;;;19.09;49.10
59411;BME280;45215;32.610;-115.482;2022-11-20T02:47:43;101962.44;;;19.10;47.93
59411;BME280;45215;32.610;-115.482;2022-11-20T02:50:09;101963.69;;;18.97;45.67
59411;BME280;45215;32.610;-115.482;2022-11-20T02:52:35;101972.22;;;19.02;47.01
59411;BME280;45215;32.610;-115.482;2022-11-20T02:55:01;101974.91;;;19.02;46.33
59411;BME280;45215;32.610;-115.482;2022-11-20T02:57:26;101973.94;;;19.03;47.69
59411;BME280;45215;32.610;-115.482;2022-11-20T02:59:53;101977.59;;;19.02;46.29
59411;BME280;45215;32.610;-115.482;2022-11-20T03:02:19;101983.13;;;19.00;46.69
59411;BME280;45215;32.610;-115.482;2022-11-20T03:04:44;101980.44;;;19.00;46.47
59411;BME280;45215;32.610;-115.482;2022-11-20T03:07:10;101976.19;;;18.98;46.17
59411;BME280;45215;32.610;-115.482;2022-11-20T03:09:36;101979.00;;;18.96;45.85
59411;BME280;45215;32.610;-115.482;2022-11-20T03:12:02;101991.72;;;18.94;46.29
59411;BME280;45215;32.610;-115.482;2022-11-20T03:14:27;101983.81;;;18.92;46.41
59411;BME280;45215;32.610;-115.482;2022-11-20T03:16:53;101995.56;;;18.91;45.80
59411;BME280;45215;32.610;-115.482;2022-11-20T03:19:19;101992.00;;;18.91;46.17
59411;BME280;45215;32.610;-115.482;2022-11-20T03:21:45;101992.16;;;18.89;45.36
59411;BME280;45215;32.610;-115.482;2022-11-20T03:24:10;101997.66;;;18.88;45.74
59411;BME280;45215;32.610;-115.482;2022-11-20T03:26:36;101996.69;;;18.89;46.68
59411;BME280;45215;32.610;-115.482;2022-11-20T03:29:03;101997.66;;;18.88;45.95
59411;BME280;45215;32.610;-115.482;2022-11-20T03:31:30;102007.56;;;18.87;45.83
59411;BME280;45215;32.610;-115.482;2022-11-20T03:33:57;102005.88;;;18.86;45.54
59411;BME280;45215;32.610;-115.482;2022-11-20T03:36:23;102004.16;;;18.85;45.25
59411;BME280;45215;32.610;-115.482;2022-11-20T03:38:49;102005.88;;;18.86;46.33
59411;BME280;45215;32.610;-115.482;2022-11-20T03:41:19;102008.69;;;18.85;46.71
59411;BME280;45215;32.610;-115.482;2022-11-20T03:43:54;101999.06;;;18.82;46.12
59411;BME280;45215;32.610;-115.482;2022-11-20T03:46:21;102009.81;;;18.82;45.45
59411;BME280;45215;32.610;-115.482;2022-11-20T03:48:47;102014.34;;;18.82;45.61
59411;BME280;45215;32.610;-115.482;2022-11-20T03:51:17;102019.72;;;18.82;45.50
59411;BME280;45215;32.610;-115.482;2022-11-20T03:53:43;102021.56;;;18.81;45.23
59411;BME280;45215;32.610;-115.482;2022-11-20T03:56:09;102025.94;;;18.82;45.64
59411;BME280;45215;32.610;-115.482;2022-11-20T03:58:36;102024.38;;;18.80;45.36
59411;BME280;45215;32.610;-115.482;2022-11-20T04:01:13;102028.91;;;18.79;45.04
59411;BME280;45215;32.610;-115.482;2022-11-20T04:03:40;102023.69;;;18.78;44.61
59411;BME280;45215;32.610;-115.482;2022-11-20T04:06:07;102021.97;;;18.77;44.75
59411;BME280;45215;32.610;-115.482;2022-11-20T04:08:33;102027.34;;;18.77;44.42
59411;BME280;45215;32.610;-115.482;2022-11-20T04:13:55;102032.03;;;18.75;44.68
59411;BME280;45215;32.610;-115.482;2022-11-20T04:16:23;102034.97;;;18.72;46.36
59411;BME280;45215;32.610;-115.482;2022-11-20T04:18:55;102041.31;;;18.70;44.90
59411;BME280;45215;32.610;-115.482;2022-11-20T04:21:22;102044.84;;;18.71;43.99
59411;BME280;45215;32.610;-115.482;2022-11-20T04:23:48;102035.94;;;18.70;44.05
59411;BME280;45215;32.610;-115.482;2022-11-20T04:26:14;102041.47;;;18.69;43.69
59411;BME280;45215;32.610;-115.482;2022-11-20T04:28:40;102045.97;;;18.68;43.90
59411;BME280;45215;32.610;-115.482;2022-11-20T04:31:08;102032.69;;;18.67;43.93
59411;BME280;45215;32.610;-115.482;2022-11-20T04:33:34;102044.28;;;18.67;44.37
59411;BME280;45215;32.610;-115.482;2022-11-20T04:36:01;102046.25;;;18.65;44.37
59411;BME280;45215;32.610;-115.482;2022-11-20T04:38:27;102050.03;;;18.53;39.12
59411;BME280;45215;32.610;-115.482;2022-11-20T04:40:57;102055.84;;;18.58;44.36
59411;BME280;45215;32.610;-115.482;2022-11-20T04:43:23;102053.34;;;18.66;45.56
59411;BME280;45215;32.610;-115.482;2022-11-20T04:45:55;102051.63;;;18.35;39.61
59411;BME280;45215;32.610;-115.482;2022-11-20T04:48:21;102060.78;;;18.53;44.86
59411;BME280;45215;32.610;-115.482;2022-11-20T04:50:47;102053.88;;;18.60;45.14
59411;BME280;45215;32.610;-115.482;2022-11-20T04:53:13;102057.88;;;18.66;47.42
59411;BME280;45215;32.610;-115.482;2022-11-20T04:55:39;102053.34;;;18.66;45.53
59411;BME280;45215;32.610;-115.482;2022-11-20T04:58:05;102064.78;;;18.68;46.34
59411;BME280;45215;32.610;-115.482;2022-11-20T05:00:31;102067.34;;;18.70;45.45
59411;BME280;45215;32.610;-115.482;2022-11-20T05:02:56;102064.66;;;18.70;46.91
59411;BME280;45215;32.610;-115.482;2022-11-20T05:05:22;102059.28;;;18.70;45.34
59411;BME280;45215;32.610;-115.482;2022-11-20T05:07:48;102067.25;;;18.72;45.88
59411;BME280;45215;32.610;-115.482;2022-11-20T05:10:14;102063.41;;;18.74;47.82
59411;BME280;45215;32.610;-115.482;2022-11-20T05:12:40;102060.03;;;18.72;45.57
59411;BME280;45215;32.610;-115.482;2022-11-20T05:15:06;102069.78;;;18.73;45.59
59411;BME280;45215;32.610;-115.482;2022-11-20T05:17:31;102058.44;;;18.18;33.60
59411;BME280;45215;32.610;-115.482;2022-11-20T05:19:57;102091.06;;;18.34;42.71
59411;BME280;45215;32.610;-115.482;2022-11-20T05:22:23;102069.22;;;18.27;43.59
59411;BME280;45215;32.610;-115.482;2022-11-20T05:24:49;102072.59;;;18.41;43.84
59411;BME280;45215;32.610;-115.482;2022-11-20T05:27:15;102079.72;;;18.52;45.15
59411;BME280;45215;32.610;-115.482;2022-11-20T05:29:41;102084.31;;;18.70;46.52
59411;BME280;45215;32.610;-115.482;2022-11-20T05:32:06;102071.91;;;18.79;44.97
59411;BME280;45215;32.610;-115.482;2022-11-20T05:34:35;102072.75;;;18.80;44.59
59411;BME280;45215;32.610;-115.482;2022-11-20T05:37:01;102072.63;;;18.81;47.01
59411;BME280;45215;32.610;-115.482;2022-11-20T05:39:26;102073.31;;;18.74;41.88
59411;BME280;45215;32.610;-115.482;2022-11-20T05:41:52;102070.72;;;18.62;43.48
59411;BME280;45215;32.610;-115.482;2022-11-20T05:44:38;102076.25;;;18.70;43.95
59411;BME280;45215;32.610;-115.482;2022-11-20T05:47:04;102077.72;;;18.75;43.89
59411;BME280;45215;32.610;-115.482;2022-11-20T05:49:30;102074.03;;;18.76;43.40
59411;BME280;45215;32.610;-115.482;2022-11-20T05:51:55;102074.59;;;18.79;43.99
59411;BME280;45215;32.610;-115.482;2022-11-20T05:54:21;102061.16;;;18.79;44.08
59411;BME280;45215;32.610;-115.482;2022-11-20T05:56:47;102058.19;;;18.82;44.86
59411;BME280;45215;32.610;-115.482;2022-11-20T05:59:13;102060.75;;;18.84;45.23
59411;BME280;45215;32.610;-115.482;2022-11-20T06:01:38;102058.91;;;18.84;45.47
59411;BME280;45215;32.610;-115.482;2022-11-20T06:04:04;102066.13;;;18.84;45.25
59411;BME280;45215;32.610;-115.482;2022-11-20T06:06:30;102067.84;;;18.85;45.30
59411;BME280;45215;32.610;-115.482;2022-11-20T06:08:56;102074.06;;;18.85;45.76
59411;BME280;45215;32.610;-115.482;2022-11-20T06:11:24;102068.69;;;18.85;45.47
59411;BME280;45215;32.610;-115.482;2022-11-20T06:13:50;102071.25;;;18.87;45.83
59411;BME280;45215;32.610;-115.482;2022-11-20T06:16:16;102070.13;;;18.89;47.78
59411;BME280;45215;32.610;-115.482;2022-11-20T06:18:42;102068.16;;;18.91;45.53
59411;BME280;45215;32.610;-115.482;2022-11-20T06:21:12;102062.91;;;18.90;45.29
59411;BME280;45215;32.610;-115.482;2022-11-20T06:23:38;102069.13;;;18.90;45.67
59411;BME280;45215;32.610;-115.482;2022-11-20T06:26:06;102066.59;;;18.89;45.51
59411;BME280;45215;32.610;-115.482;2022-11-20T06:28:32;102069.28;;;18.89;46.02
59411;BME280;45215;32.610;-115.482;2022-11-20T06:30:58;102061.91;;;18.91;46.61
59411;BME280;45215;32.610;-115.482;2022-11-20T06:33:24;102068.28;;;18.90;45.86
59411;BME280;45215;32.610;-115.482;2022-11-20T06:35:50;102071.97;;;18.89;45.15
59411;BME280;45215;32.610;-115.482;2022-11-20T06:38:15;102067.44;;;18.89;45.50
59411;BME280;45215;32.610;-115.482;2022-11-20T06:40:42;102072.81;;;18.89;45.50
59411;BME280;45215;32.610;-115.482;2022-11-20T06:43:09;102070.13;;;18.89;44.68
59411;BME280;45215;32.610;-115.482;2022-11-20T06:45:35;102070.97;;;18.90;45.43
59411;BME280;45215;32.610;-115.482;2022-11-20T06:48:00;102070.97;;;18.90;45.32
59411;BME280;45215;32.610;-115.482;2022-11-20T06:50:26;102060.22;;;18.90;45.37
59411;BME280;45215;32.610;-115.482;2022-11-20T06:52:52;102067.44;;;18.89;45.52
59411;BME280;45215;32.610;-115.482;2022-11-20T06:55:18;102070.97;;;18.90;45.23
59411;BME280;45215;32.610;-115.482;2022-11-20T06:57:43;102067.44;;;18.89;45.54
59411;BME280;45215;32.610;-115.482;2022-11-20T07:00:09;102077.34;;;18.89;45.59
59411;BME280;45215;32.610;-115.482;2022-11-20T07:02:35;102080.88;;;18.89;45.21
59411;BME280;45215;32.610;-115.482;2022-11-20T07:05:01;102080.03;;;18.89;45.06
59411;BME280;45215;32.610;-115.482;2022-11-20T07:07:27;102082.72;;;18.89;44.89
59411;BME280;45215;32.610;-115.482;2022-11-20T07:09:53;102088.09;;;18.89;44.33
59411;BME280;45215;32.610;-115.482;2022-11-20T07:12:18;102095.16;;;18.90;45.75
59411;BME280;45215;32.610;-115.482;2022-11-20T07:14:44;102096.16;;;18.89;44.43
59411;BME280;45215;32.610;-115.482;2022-11-20T07:17:10;102092.75;;;18.87;44.48
59411;BME280;45215;32.610;-115.482;2022-11-20T07:19:36;102099.13;;;18.86;44.82
59411;BME280;45215;32.610;-115.482;2022-11-20T07:22:02;102101.09;;;18.84;44.71
59411;BME280;45215;32.610;-115.482;2022-11-20T07:24:28;102090.97;;;18.66;45.07
59411;BME280;45215;32.610;-115.482;2022-11-20T07:26:53;102091.59;;;18.49;44.39
59411;BME280;45215;32.610;-115.482;2022-11-20T07:29:19;102087.09;;;18.59;44.66
59411;BME280;45215;32.610;-115.482;2022-11-20T07:31:45;102095.63;;;18.64;44.48
59411;BME280;45215;32.610;-115.482;2022-11-20T07:34:11;102092.81;;;18.66;44.08
59411;BME280;45215;32.610;-115.482;2022-11-20T07:36:37;102087.56;;;18.64;44.22
59411;BME280;45215;32.610;-115.482;2022-11-20T07:39:02;102093.78;;;18.65;43.89
59411;BME280;45215;32.610;-115.482;2022-11-20T07:41:28;102090.38;;;18.63;43.86
59411;BME280;45215;32.610;-115.482;2022-11-20T07:43:54;102089.66;;;18.61;43.42
59411;BME280;45215;32.610;-115.482;2022-11-20T07:46:20;102078.72;;;18.53;42.95
59411;BME280;45215;32.610;-115.482;2022-11-20T07:48:46;102084.69;;;18.56;43.47
59411;BME280;45215;32.610;-115.482;2022-11-20T07:51:11;102084.69;;;18.56;43.74
59411;BME280;45215;32.610;-115.482;2022-11-20T07:53:38;102083.00;;;18.55;43.78
59411;BME280;45215;32.610;-115.482;2022-11-20T07:56:04;102084.97;;;18.53;43.38
59411;BME280;45215;32.610;-115.482;2022-11-20T07:58:30;102076.03;;;18.53;44.05
59411;BME280;45215;32.610;-115.482;2022-11-20T08:01:01;102073.47;;;18.51;43.73
59411;BME280;45215;32.610;-115.482;2022-11-20T08:03:27;102078.16;;;18.49;44.19
59411;BME280;45215;32.610;-115.482;2022-11-20T08:05:53;102079.97;;;18.48;43.90
59411;BME280;45215;32.610;-115.482;2022-11-20T08:08:19;102076.44;;;18.48;43.29
59411;BME280;45215;32.610;-115.482;2022-11-20T08:10:45;102079.00;;;18.50;46.30
59411;BME280;45215;32.610;-115.482;2022-11-20T08:13:10;102071.22;;;18.46;43.50
59411;BME280;45215;32.610;-115.482;2022-11-20T08:15:54;102069.38;;;18.47;44.20
59411;BME280;45215;32.610;-115.482;2022-11-20T08:18:20;102071.91;;;18.48;46.39
59411;BME280;45215;32.610;-115.482;2022-11-20T08:20:46;102072.91;;;18.47;43.80
59411;BME280;45215;32.610;-115.482;2022-11-20T08:23:12;102066.53;;;18.48;44.03
59411;BME280;45215;32.610;-115.482;2022-11-20T08:25:38;102067.41;;;18.49;44.48
59411;BME280;45215;32.610;-115.482;2022-11-20T08:28:07;102060.19;;;18.50;44.25
59411;BME280;45215;32.610;-115.482;2022-11-20T08:30:33;102059.06;;;18.52;46.37
59411;BME280;45215;32.610;-115.482;2022-11-20T08:33:02;102059.19;;;18.51;46.47
59411;BME280;45215;32.610;-115.482;2022-11-20T08:35:32;102054.81;;;18.50;43.83
59411;BME280;45215;32.610;-115.482;2022-11-20T08:37:58;102054.66;;;18.51;44.26
59411;BME280;45215;32.610;-115.482;2022-11-20T08:40:23;102060.91;;;18.52;45.99
59411;BME280;45215;32.610;-115.482;2022-11-20T08:42:49;102053.81;;;18.51;46.89
59411;BME280;45215;32.610;-115.482;2022-11-20T08:45:16;102045.19;;;18.47;44.19
59411;BME280;45215;32.610;-115.482;2022-11-20T08:47:42;102054.94;;;18.48;46.64
59411;BME280;45215;32.610;-115.482;2022-11-20T08:50:09;102055.09;;;18.46;44.86
59411;BME280;45215;32.610;-115.482;2022-11-20T08:52:35;102055.22;;;18.45;46.01
59411;BME280;45215;32.610;-115.482;2022-11-20T08:55:00;102055.34;;;18.43;44.60
59411;BME280;45215;32.610;-115.482;2022-11-20T08:57:26;102055.22;;;18.45;46.64
59411;BME280;45215;32.610;-115.482;2022-11-20T08:59:52;102060.84;;;18.42;44.30
59411;BME280;45215;32.610;-115.482;2022-11-20T09:02:17;102057.16;;;18.43;44.30
59411;BME280;45215;32.610;-115.482;2022-11-20T09:04:44;102055.63;;;18.40;43.59
59411;BME280;45215;32.610;-115.482;2022-11-20T09:07:10;102050.38;;;18.39;43.44
59411;BME280;45215;32.610;-115.482;2022-11-20T09:09:35;102052.06;;;18.40;42.69
59411;BME280;45215;32.610;-115.482;2022-11-20T09:12:01;102056.59;;;18.39;43.37
59411;BME280;45215;32.610;-115.482;2022-11-20T09:14:27;102052.06;;;18.40;42.95
59411;BME280;45215;32.610;-115.482;2022-11-20T09:16:55;102051.22;;;18.39;43.02
59411;BME280;45215;32.610;-115.482;2022-11-20T09:19:21;102051.22;;;18.39;46.18
59411;BME280;45215;32.610;-115.482;2022-11-20T09:21:47;102055.91;;;18.37;46.17
59411;BME280;45215;32.610;-115.482;2022-11-20T09:24:12;102047.13;;;18.35;43.45
59411;BME280;45215;32.610;-115.482;2022-11-20T09:26:38;102048.97;;;18.35;46.13
59411;BME280;45215;32.610;-115.482;2022-11-20T09:29:04;102050.91;;;18.33;44.46
59411;BME280;45215;32.610;-115.482;2022-11-20T09:31:30;102050.06;;;18.32;46.34
59411;BME280;45215;32.610;-115.482;2022-11-20T09:33:55;102040.44;;;18.30;46.74
59411;BME280;45215;32.610;-115.482;2022-11-20T09:36:21;102042.38;;;18.27;44.55
59411;BME280;45215;32.610;-115.482;2022-11-20T09:38:47;102044.09;;;18.29;43.93
59411;BME280;45215;32.610;-115.482;2022-11-20T09:49:14;102035.31;;;18.26;44.35
59411;BME280;45215;32.610;-115.482;2022-11-20T09:54:35;102037.25;;;18.24;43.39
59411;BME280;45215;32.610;-115.482;2022-11-20T09:57:05;102041.50;;;18.27;46.73
59411;BME280;45215;32.610;-115.482;2022-11-20T10:02:24;102042.63;;;18.24;45.27
59411;BME280;45215;32.610;-115.482;2022-11-20T10:05:13;102040.94;;;18.23;45.21
59411;BME280;45215;32.610;-115.482;2022-11-20T10:10:16;102048.28;;;18.21;46.90
59411;BME280;45215;32.610;-115.482;2022-11-20T10:15:25;102057.31;;;18.20;47.13
59411;BME280;45215;32.610;-115.482;2022-11-20T10:20:26;102050.22;;;18.19;47.07
59411;BME280;45215;32.610;-115.482;2022-11-20T10:25:21;102053.19;;;18.16;45.94
59411;BME280;45215;32.610;-115.482;2022-11-20T10:28:05;102044.38;;;18.14;43.87
59411;BME280;45215;32.610;-115.482;2022-11-20T10:30:39;102046.13;;;18.15;46.64
59411;BME280;45215;32.610;-115.482;2022-11-20T10:33:08;102035.38;;;18.15;46.75
59411;BME280;45215;32.610;-115.482;2022-11-20T10:35:41;102041.72;;;18.14;46.86
59411;BME280;45215;32.610;-115.482;2022-11-20T10:40:54;102038.31;;;18.12;46.21
59411;BME280;45215;32.610;-115.482;2022-11-20T10:43:42;102033.81;;;18.13;46.83
59411;BME280;45215;32.610;-115.482;2022-11-20T10:46:10;102029.28;;;18.13;46.89
59411;BME280;45215;32.610;-115.482;2022-11-20T10:48:39;102041.00;;;18.12;46.69
59411;BME280;45215;32.610;-115.482;2022-11-20T10:53:51;102040.28;;;18.10;46.79
59411;BME280;45215;32.610;-115.482;2022-11-20T11:01:30;102038.72;;;18.08;46.52
59411;BME280;45215;32.610;-115.482;2022-11-20T11:03:55;102044.09;;;18.08;46.42
59411;BME280;45215;32.610;-115.482;2022-11-20T11:09:02;102047.88;;;18.05;46.58
59411;BME280;45215;32.610;-115.482;2022-11-20T11:11:30;102053.25;;;18.05;46.69
59411;BME280;45215;32.610;-115.482;2022-11-20T11:14:16;102051.56;;;18.04;46.70
59411;BME280;45215;32.610;-115.482;2022-11-20T11:16:57;102050.81;;;18.02;46.71
59411;BME280;45215;32.610;-115.482;2022-11-20T11:19:23;102047.28;;;18.01;46.91
59411;BME280;45215;32.610;-115.482;2022-11-20T11:21:50;102048.41;;;17.99;43.66
59411;BME280;45215;32.610;-115.482;2022-11-20T11:24:24;102050.97;;;18.00;46.70
59411;BME280;45215;32.610;-115.482;2022-11-20T11:26:52;102043.88;;;17.99;46.08
59411;BME280;45215;32.610;-115.482;2022-11-20T11:29:18;102053.03;;;17.97;44.86
59411;BME280;45215;32.610;-115.482;2022-11-20T11:31:44;102043.31;;;17.96;46.67
59411;BME280;45215;32.610;-115.482;2022-11-20T11:34:11;102049.66;;;17.95;46.35
59411;BME280;45215;32.610;-115.482;2022-11-20T11:36:38;102049.66;;;17.95;45.94
59411;BME280;45215;32.610;-115.482;2022-11-20T11:39:04;102044.41;;;17.93;46.26
59411;BME280;45215;32.610;-115.482;2022-11-20T11:41:32;102046.25;;;17.93;46.48
59411;BME280;45215;32.610;-115.482;2022-11-20T11:44:23;102047.25;;;17.92;46.19
59411;BME280;45215;32.610;-115.482;2022-11-20T11:47:24;102048.94;;;17.93;46.06
59411;BME280;45215;32.610;-115.482;2022-11-20T11:53:34;102063.34;;;17.92;46.62
59411;BME280;45215;32.610;-115.482;2022-11-20T12:00:40;102080.56;;;17.89;44.43
59411;BME280;45215;32.610;-115.482;2022-11-20T12:03:13;102078.72;;;17.90;46.38
59411;BME280;45215;32.610;-115.482;2022-11-20T12:05:43;102085.94;;;17.89;44.91
59411;BME280;45215;32.610;-115.482;2022-11-20T12:10:49;102087.88;;;17.87;45.97
59411;BME280;45215;32.610;-115.482;2022-11-20T12:15:50;102092.66;;;17.84;44.80
59411;BME280;45215;32.610;-115.482;2022-11-20T12:18:20;102097.03;;;17.85;45.69
59411;BME280;45215;32.610;-115.482;2022-11-20T12:20:50;102093.63;;;17.83;45.78
59411;BME280;45215;32.610;-115.482;2022-11-20T12:25:53;102099.84;;;17.83;46.45
59411;BME280;45215;32.610;-115.482;2022-11-20T12:47:02;102120.00;;;17.77;46.16
59411;BME280;45215;32.610;-115.482;2022-11-20T12:49:37;102117.31;;;17.77;46.27
59411;BME280;45215;32.610;-115.482;2022-11-20T12:52:11;102123.66;;;17.76;46.17
59411;BME280;45215;32.610;-115.482;2022-11-20T12:54:50;102129.88;;;17.77;46.22
59411;BME280;45215;32.610;-115.482;2022-11-20T13:07:46;102140.03;;;17.73;46.15
59411;BME280;45215;32.610;-115.482;2022-11-20T13:10:18;102140.16;;;17.72;45.99
59411;BME280;45215;32.610;-115.482;2022-11-20T13:12:48;102137.50;;;17.72;45.95
59411;BME280;45215;32.610;-115.482;2022-11-20T13:17:59;102153.69;;;17.70;45.85
59411;BME280;45215;32.610;-115.482;2022-11-20T13:20:26;102157.38;;;17.69;46.02
59411;BME280;45215;32.610;-115.482;2022-11-20T13:22:53;102162.75;;;17.69;46.09
59411;BME280;45215;32.610;-115.482;2022-11-20T13:25:25;102169.06;;;17.68;46.01
59411;BME280;45215;32.610;-115.482;2022-11-20T13:27:52;102171.91;;;17.67;45.88
59411;BME280;45215;32.610;-115.482;2022-11-20T13:30:22;102174.69;;;17.65;46.12
59411;BME280;45215;32.610;-115.482;2022-11-20T13:32:52;102180.06;;;17.65;46.02
59411;BME280;45215;32.610;-115.482;2022-11-20T13:35:26;102185.44;;;17.65;46.12
59411;BME280;45215;32.610;-115.482;2022-11-20T13:40:27;102187.38;;;17.63;46.27
59411;BME280;45215;32.610;-115.482;2022-11-20T13:43:01;102179.47;;;17.62;45.93
59411;BME280;45215;32.610;-115.482;2022-11-20T13:45:28;102186.66;;;17.61;46.27
59411;BME280;45215;32.610;-115.482;2022-11-20T13:47:55;102192.03;;;17.61;45.99
59411;BME280;45215;32.610;-115.482;2022-11-20T13:50:22;102187.63;;;17.60;45.64
59411;BME280;45215;32.610;-115.482;2022-11-20T13:55:40;102196.66;;;17.59;45.96
59411;BME280;45215;32.610;-115.482;2022-11-20T14:03:37;102211.31;;;17.55;45.94
59411;BME280;45215;32.610;-115.482;2022-11-20T14:06:04;102213.13;;;17.54;45.91
59411;BME280;45215;32.610;-115.482;2022-11-20T14:08:35;102214.09;;;17.53;45.62